DAOB

Bou Chekif Airport

Tiaret, Algeria
TAF DAOB 221100Z 2212/2312 30012KT 9999 FEW013 SCT023 PROB40 TEMPO 2212/2218 32015G25KT FEW023CB TEMPO 2218/2306 FEW023CB SCT026TCU PROB40 TEMPO 2223/2306 3000 -SNRA BKN010
Issued Valid From Valid To
Jan-22 @ 11:00 UTC
(6 hours ago)
Jan-22 @ 12:00 UTC
(5 hours ago)
Jan-23 @ 12:00 UTC
(in 19 hours)
Jan-22 @ 12:00 to Jan-23 @ 12:00
TAF DAOB 221100Z 2212/2312 30012KT 9999 FEW013 SCT023
Wind Visibility Clouds
300° at 12 knots 10,000+ meters
  • Few at 1,300' AGL
  • Scattered at 2,300' AGL
Temporary  (Probability 40%) Jan-22 @ 12:00 to Jan-22 @ 18:00
PROB40 TEMPO 2212/2218 32015G25KT FEW023CB
Wind Clouds
320° at 15 knots
 Gusting to 25 knots
  • Few at 2,300' AGL
Temporary Jan-22 @ 18:00 to Jan-23 @ 06:00
TEMPO 2218/2306 FEW023CB SCT026TCU
Clouds
  • Few at 2,300' AGL
  • Scattered at 2,600' AGL
Temporary  (Probability 40%) Jan-22 @ 23:00 to Jan-23 @ 06:00
PROB40 TEMPO 2223/2306 3000 -SNRA BKN010
Visibility Clouds Conditions
2,993 meters
  • Broken at 1,000' AGL
  • Light Snow
  • Light Rain
TAF DAOB 221100Z 2212/2312 30012KT 9999 FEW013 SCT023 PROB40 TEMPO 2212/2218 32015G25KT FEW023CB TEMPO 2218/2306 FEW023CB SCT026TCU PROB40 TEMPO 2223/2306 3000 -SNRA BKN010
Issued Jan-22 @ 11:00 UTC
(6 hours ago)
Valid From Jan-22 @ 12:00 UTC
(5 hours ago)
Valid To Jan-23 @ 12:00 UTC
(in 19 hours)
Jan-22 @ 12:00 - Jan-23 @ 12:00
Wind Visibility
300° at 12 knots 10,000+ meters
Clouds
  • Few at 1,300' AGL
  • Scattered at 2,300' AGL
Probability 40% Temporary Jan-22 @ 12:00 - Jan-22 @ 18:00
Wind
320° at 15 knots
 Gusting to 25 knots
Clouds
  • Few at 2,300' AGL
Temporary Jan-22 @ 18:00 - Jan-23 @ 06:00
Clouds
  • Few at 2,300' AGL
  • Scattered at 2,600' AGL
Probability 40% Temporary Jan-22 @ 23:00 - Jan-23 @ 06:00
Clouds
  • Broken at 1,000' AGL
Conditions
  • Light Snow
  • Light Rain